sensor_id;sensor_type;location;lat;lon;timestamp;P1;P2;P0
56175;PMS5003;63065;51.082;17.016;2023-05-10T00:01:08;18;18;
56175;PMS5003;63065;51.082;17.016;2023-05-10T00:03:32;22;22;
56175;PMS5003;63065;51.082;17.016;2023-05-10T00:05:58;20;20;
56175;PMS5003;63065;51.082;17.016;2023-05-10T00:10:48;23;21;
56175;PMS5003;63065;51.082;17.016;2023-05-10T00:13:14;23;23;
56175;PMS5003;63065;51.082;17.016;2023-05-10T00:15:39;23;20;
56175;PMS5003;63065;51.082;17.016;2023-05-10T00:18:04;22;21;
56175;PMS5003;63065;51.082;17.016;2023-05-10T00:20:30;21;21;
56175;PMS5003;63065;51.082;17.016;2023-05-10T00:22:56;24;22;
56175;PMS5003;63065;51.082;17.016;2023-05-10T00:25:21;22;18;
56175;PMS5003;63065;51.082;17.016;2023-05-10T00:27:46;26;23;
56175;PMS5003;63065;51.082;17.016;2023-05-10T00:30:12;23;20;
56175;PMS5003;63065;51.082;17.016;2023-05-10T00:32:37;20;19;
56175;PMS5003;63065;51.082;17.016;2023-05-10T00:35:03;18;17;
56175;PMS5003;63065;51.082;17.016;2023-05-10T00:37:28;22;22;
56175;PMS5003;63065;51.082;17.016;2023-05-10T00:39:53;23;22;
56175;PMS5003;63065;51.082;17.016;2023-05-10T00:42:19;20;19;
56175;PMS5003;63065;51.082;17.016;2023-05-10T00:44:44;23;22;
56175;PMS5003;63065;51.082;17.016;2023-05-10T00:47:10;22;20;
56175;PMS5003;63065;51.082;17.016;2023-05-10T00:49:35;20;20;
56175;PMS5003;63065;51.082;17.016;2023-05-10T00:52:01;26;23;
56175;PMS5003;63065;51.082;17.016;2023-05-10T00:54:26;30;24;
56175;PMS5003;63065;51.082;17.016;2023-05-10T00:56:51;21;21;
56175;PMS5003;63065;51.082;17.016;2023-05-10T00:59:17;23;23;
56175;PMS5003;63065;51.082;17.016;2023-05-10T01:01:43;31;26;
56175;PMS5003;63065;51.082;17.016;2023-05-10T01:04:08;27;24;
56175;PMS5003;63065;51.082;17.016;2023-05-10T01:06:33;25;20;
56175;PMS5003;63065;51.082;17.016;2023-05-10T01:08:59;19;19;
56175;PMS5003;63065;51.082;17.016;2023-05-10T01:11:24;21;21;
56175;PMS5003;63065;51.082;17.016;2023-05-10T01:13:51;21;21;
56175;PMS5003;63065;51.082;17.016;2023-05-10T01:16:15;27;25;
56175;PMS5003;63065;51.082;17.016;2023-05-10T01:18:40;27;24;
56175;PMS5003;63065;51.082;17.016;2023-05-10T01:21:12;27;25;
56175;PMS5003;63065;51.082;17.016;2023-05-10T01:23:36;29;25;
56175;PMS5003;63065;51.082;17.016;2023-05-10T01:28:28;24;23;
56175;PMS5003;63065;51.082;17.016;2023-05-10T01:30:54;25;23;
56175;PMS5003;63065;51.082;17.016;2023-05-10T01:33:13;30;27;
56175;PMS5003;63065;51.082;17.016;2023-05-10T01:35:39;23;23;
56175;PMS5003;63065;51.082;17.016;2023-05-10T01:38:05;29;27;
56175;PMS5003;63065;51.082;17.016;2023-05-10T01:40:30;22;21;
56175;PMS5003;63065;51.082;17.016;2023-05-10T01:42:57;26;25;
56175;PMS5003;63065;51.082;17.016;2023-05-10T01:45:24;27;24;
56175;PMS5003;63065;51.082;17.016;2023-05-10T01:47:48;31;24;
56175;PMS5003;63065;51.082;17.016;2023-05-10T01:50:14;23;23;
56175;PMS5003;63065;51.082;17.016;2023-05-10T01:52:38;23;21;
56175;PMS5003;63065;51.082;17.016;2023-05-10T01:55:05;26;24;
56175;PMS5003;63065;51.082;17.016;2023-05-10T01:57:31;23;22;
56175;PMS5003;63065;51.082;17.016;2023-05-10T01:59:54;21;20;
56175;PMS5003;63065;51.082;17.016;2023-05-10T02:02:20;23;23;
56175;PMS5003;63065;51.082;17.016;2023-05-10T02:04:44;23;23;
56175;PMS5003;63065;51.082;17.016;2023-05-10T02:07:09;22;20;
56175;PMS5003;63065;51.082;17.016;2023-05-10T02:09:35;22;19;
56175;PMS5003;63065;51.082;17.016;2023-05-10T02:12:01;28;22;
56175;PMS5003;63065;51.082;17.016;2023-05-10T02:14:26;24;23;
56175;PMS5003;63065;51.082;17.016;2023-05-10T02:16:51;30;28;
56175;PMS5003;63065;51.082;17.016;2023-05-10T02:19:16;24;23;
56175;PMS5003;63065;51.082;17.016;2023-05-10T02:21:41;21;21;
56175;PMS5003;63065;51.082;17.016;2023-05-10T02:24:07;27;25;
56175;PMS5003;63065;51.082;17.016;2023-05-10T02:26:33;21;20;
56175;PMS5003;63065;51.082;17.016;2023-05-10T02:28:58;25;24;
56175;PMS5003;63065;51.082;17.016;2023-05-10T02:31:23;28;26;
56175;PMS5003;63065;51.082;17.016;2023-05-10T02:33:49;25;22;
56175;PMS5003;63065;51.082;17.016;2023-05-10T02:36:14;24;24;
56175;PMS5003;63065;51.082;17.016;2023-05-10T02:38:40;22;22;
56175;PMS5003;63065;51.082;17.016;2023-05-10T02:41:05;28;26;
56175;PMS5003;63065;51.082;17.016;2023-05-10T02:43:31;24;24;
56175;PMS5003;63065;51.082;17.016;2023-05-10T02:45:57;28;24;
56175;PMS5003;63065;51.082;17.016;2023-05-10T02:48:22;23;21;
56175;PMS5003;63065;51.082;17.016;2023-05-10T02:50:48;27;27;
56175;PMS5003;63065;51.082;17.016;2023-05-10T02:53:15;22;22;
56175;PMS5003;63065;51.082;17.016;2023-05-10T02:55:40;26;23;
56175;PMS5003;63065;51.082;17.016;2023-05-10T02:58:04;24;24;
56175;PMS5003;63065;51.082;17.016;2023-05-10T03:00:30;27;25;
56175;PMS5003;63065;51.082;17.016;2023-05-10T03:02:56;29;25;
56175;PMS5003;63065;51.082;17.016;2023-05-10T03:05:21;28;23;
56175;PMS5003;63065;51.082;17.016;2023-05-10T03:07:46;25;22;
56175;PMS5003;63065;51.082;17.016;2023-05-10T03:10:13;26;25;
56175;PMS5003;63065;51.082;17.016;2023-05-10T03:12:49;27;25;
56175;PMS5003;63065;51.082;17.016;2023-05-10T03:15:05;29;26;
56175;PMS5003;63065;51.082;17.016;2023-05-10T03:17:30;28;25;
56175;PMS5003;63065;51.082;17.016;2023-05-10T03:19:54;28;25;
56175;PMS5003;63065;51.082;17.016;2023-05-10T03:22:21;27;27;
56175;PMS5003;63065;51.082;17.016;2023-05-10T03:24:44;26;24;
56175;PMS5003;63065;51.082;17.016;2023-05-10T03:27:10;29;28;
56175;PMS5003;63065;51.082;17.016;2023-05-10T03:29:35;24;23;
56175;PMS5003;63065;51.082;17.016;2023-05-10T03:32:01;28;27;
56175;PMS5003;63065;51.082;17.016;2023-05-10T03:34:26;23;21;
56175;PMS5003;63065;51.082;17.016;2023-05-10T03:36:52;25;24;
56175;PMS5003;63065;51.082;17.016;2023-05-10T03:39:17;25;25;
56175;PMS5003;63065;51.082;17.016;2023-05-10T03:41:43;28;24;
56175;PMS5003;63065;51.082;17.016;2023-05-10T03:44:08;28;28;
56175;PMS5003;63065;51.082;17.016;2023-05-10T03:46:34;25;24;
56175;PMS5003;63065;51.082;17.016;2023-05-10T03:49:00;30;29;
56175;PMS5003;63065;51.082;17.016;2023-05-10T03:51:26;30;26;
56175;PMS5003;63065;51.082;17.016;2023-05-10T03:53:51;23;23;
56175;PMS5003;63065;51.082;17.016;2023-05-10T03:56:16;28;25;
56175;PMS5003;63065;51.082;17.016;2023-05-10T03:58:42;23;23;
56175;PMS5003;63065;51.082;17.016;2023-05-10T04:01:08;25;25;
56175;PMS5003;63065;51.082;17.016;2023-05-10T04:03:33;25;23;
56175;PMS5003;63065;51.082;17.016;2023-05-10T04:05:59;29;27;
56175;PMS5003;63065;51.082;17.016;2023-05-10T04:08:24;27;27;
56175;PMS5003;63065;51.082;17.016;2023-05-10T04:10:50;31;30;
56175;PMS5003;63065;51.082;17.016;2023-05-10T04:13:15;32;29;
56175;PMS5003;63065;51.082;17.016;2023-05-10T04:15:41;25;24;
56175;PMS5003;63065;51.082;17.016;2023-05-10T04:18:06;29;26;
56175;PMS5003;63065;51.082;17.016;2023-05-10T04:20:32;30;24;
56175;PMS5003;63065;51.082;17.016;2023-05-10T04:22:57;25;24;
56175;PMS5003;63065;51.082;17.016;2023-05-10T04:25:23;26;25;
56175;PMS5003;63065;51.082;17.016;2023-05-10T04:27:48;29;28;
56175;PMS5003;63065;51.082;17.016;2023-05-10T04:30:14;26;26;
56175;PMS5003;63065;51.082;17.016;2023-05-10T04:32:39;31;28;
56175;PMS5003;63065;51.082;17.016;2023-05-10T04:35:05;24;23;
56175;PMS5003;63065;51.082;17.016;2023-05-10T04:37:30;23;22;
56175;PMS5003;63065;51.082;17.016;2023-05-10T04:39:55;22;20;
56175;PMS5003;63065;51.082;17.016;2023-05-10T04:42:21;26;24;
56175;PMS5003;63065;51.082;17.016;2023-05-10T04:44:47;32;24;
56175;PMS5003;63065;51.082;17.016;2023-05-10T04:47:12;28;24;
56175;PMS5003;63065;51.082;17.016;2023-05-10T04:49:38;27;27;
56175;PMS5003;63065;51.082;17.016;2023-05-10T04:52:03;36;33;
56175;PMS5003;63065;51.082;17.016;2023-05-10T04:54:29;22;22;
56175;PMS5003;63065;51.082;17.016;2023-05-10T04:56:54;28;26;
56175;PMS5003;63065;51.082;17.016;2023-05-10T04:59:20;29;26;
56175;PMS5003;63065;51.082;17.016;2023-05-10T05:01:46;25;23;
56175;PMS5003;63065;51.082;17.016;2023-05-10T05:04:11;31;30;
56175;PMS5003;63065;51.082;17.016;2023-05-10T05:06:36;28;27;
56175;PMS5003;63065;51.082;17.016;2023-05-10T05:09:01;24;24;
56175;PMS5003;63065;51.082;17.016;2023-05-10T05:11:27;26;25;
56175;PMS5003;63065;51.082;17.016;2023-05-10T05:13:52;24;22;
56175;PMS5003;63065;51.082;17.016;2023-05-10T05:16:18;27;27;
56175;PMS5003;63065;51.082;17.016;2023-05-10T05:18:43;27;27;
56175;PMS5003;63065;51.082;17.016;2023-05-10T05:23:33;27;23;
56175;PMS5003;63065;51.082;17.016;2023-05-10T05:25:59;27;27;
56175;PMS5003;63065;51.082;17.016;2023-05-10T05:28:24;23;23;
56175;PMS5003;63065;51.082;17.016;2023-05-10T05:30:49;26;25;
56175;PMS5003;63065;51.082;17.016;2023-05-10T05:33:14;25;25;
56175;PMS5003;63065;51.082;17.016;2023-05-10T05:35:40;25;24;
56175;PMS5003;63065;51.082;17.016;2023-05-10T05:38:05;22;22;
56175;PMS5003;63065;51.082;17.016;2023-05-10T05:40:31;29;26;
56175;PMS5003;63065;51.082;17.016;2023-05-10T05:42:57;24;24;
56175;PMS5003;63065;51.082;17.016;2023-05-10T05:45:22;25;24;
56175;PMS5003;63065;51.082;17.016;2023-05-10T05:47:48;27;25;
56175;PMS5003;63065;51.082;17.016;2023-05-10T05:50:14;20;20;
56175;PMS5003;63065;51.082;17.016;2023-05-10T05:52:40;23;21;
56175;PMS5003;63065;51.082;17.016;2023-05-10T05:55:05;27;26;
56175;PMS5003;63065;51.082;17.016;2023-05-10T05:57:30;22;21;
56175;PMS5003;63065;51.082;17.016;2023-05-10T05:59:55;23;22;
56175;PMS5003;63065;51.082;17.016;2023-05-10T06:02:21;24;23;
56175;PMS5003;63065;51.082;17.016;2023-05-10T06:04:46;25;25;
56175;PMS5003;63065;51.082;17.016;2023-05-10T06:07:11;24;22;
56175;PMS5003;63065;51.082;17.016;2023-05-10T06:09:37;24;19;
56175;PMS5003;63065;51.082;17.016;2023-05-10T06:12:03;22;22;
56175;PMS5003;63065;51.082;17.016;2023-05-10T06:14:27;27;24;
56175;PMS5003;63065;51.082;17.016;2023-05-10T06:16:53;30;25;
56175;PMS5003;63065;51.082;17.016;2023-05-10T06:19:19;28;25;
56175;PMS5003;63065;51.082;17.016;2023-05-10T06:21:44;22;18;
56175;PMS5003;63065;51.082;17.016;2023-05-10T06:24:09;19;18;
56175;PMS5003;63065;51.082;17.016;2023-05-10T06:26:35;23;20;
56175;PMS5003;63065;51.082;17.016;2023-05-10T06:29:00;21;21;
56175;PMS5003;63065;51.082;17.016;2023-05-10T06:31:26;24;21;
56175;PMS5003;63065;51.082;17.016;2023-05-10T06:33:51;18;15;
56175;PMS5003;63065;51.082;17.016;2023-05-10T06:36:17;19;19;
56175;PMS5003;63065;51.082;17.016;2023-05-10T06:38:42;20;18;
56175;PMS5003;63065;51.082;17.016;2023-05-10T06:41:08;22;19;
56175;PMS5003;63065;51.082;17.016;2023-05-10T06:43:33;22;19;
56175;PMS5003;63065;51.082;17.016;2023-05-10T06:45:59;25;23;
56175;PMS5003;63065;51.082;17.016;2023-05-10T06:48:24;22;18;
56175;PMS5003;63065;51.082;17.016;2023-05-10T06:50:49;19;18;
56175;PMS5003;63065;51.082;17.016;2023-05-10T06:53:15;18;16;
56175;PMS5003;63065;51.082;17.016;2023-05-10T06:55:40;15;15;
56175;PMS5003;63065;51.082;17.016;2023-05-10T06:58:06;22;18;
56175;PMS5003;63065;51.082;17.016;2023-05-10T07:00:31;23;20;
56175;PMS5003;63065;51.082;17.016;2023-05-10T07:02:57;17;17;
56175;PMS5003;63065;51.082;17.016;2023-05-10T07:05:23;22;19;
56175;PMS5003;63065;51.082;17.016;2023-05-10T07:07:48;13;13;
56175;PMS5003;63065;51.082;17.016;2023-05-10T07:10:14;17;15;
56175;PMS5003;63065;51.082;17.016;2023-05-10T07:12:40;16;16;
56175;PMS5003;63065;51.082;17.016;2023-05-10T07:15:06;16;15;
56175;PMS5003;63065;51.082;17.016;2023-05-10T07:17:31;15;15;
56175;PMS5003;63065;51.082;17.016;2023-05-10T07:19:56;16;13;
56175;PMS5003;63065;51.082;17.016;2023-05-10T07:22:22;22;17;
56175;PMS5003;63065;51.082;17.016;2023-05-10T07:24:48;13;13;
56175;PMS5003;63065;51.082;17.016;2023-05-10T07:27:13;15;15;
56175;PMS5003;63065;51.082;17.016;2023-05-10T07:29:39;23;20;
56175;PMS5003;63065;51.082;17.016;2023-05-10T07:32:05;20;14;
56175;PMS5003;63065;51.082;17.016;2023-05-10T07:34:31;16;15;
56175;PMS5003;63065;51.082;17.016;2023-05-10T07:36:57;14;13;
56175;PMS5003;63065;51.082;17.016;2023-05-10T07:39:22;13;11;
56175;PMS5003;63065;51.082;17.016;2023-05-10T07:41:48;15;13;
56175;PMS5003;63065;51.082;17.016;2023-05-10T07:44:13;14;13;
56175;PMS5003;63065;51.082;17.016;2023-05-10T07:46:39;14;14;
56175;PMS5003;63065;51.082;17.016;2023-05-10T07:49:04;19;19;
56175;PMS5003;63065;51.082;17.016;2023-05-10T07:51:30;17;14;
56175;PMS5003;63065;51.082;17.016;2023-05-10T07:53:56;17;17;
56175;PMS5003;63065;51.082;17.016;2023-05-10T07:56:23;14;12;
56175;PMS5003;63065;51.082;17.016;2023-05-10T07:58:47;16;15;
56175;PMS5003;63065;51.082;17.016;2023-05-10T08:01:13;13;13;
56175;PMS5003;63065;51.082;17.016;2023-05-10T08:03:38;14;14;
56175;PMS5003;63065;51.082;17.016;2023-05-10T08:06:05;12;11;
56175;PMS5003;63065;51.082;17.016;2023-05-10T08:08:30;15;14;
56175;PMS5003;63065;51.082;17.016;2023-05-10T08:10:55;13;11;
56175;PMS5003;63065;51.082;17.016;2023-05-10T08:13:21;14;14;
56175;PMS5003;63065;51.082;17.016;2023-05-10T08:15:46;10;10;
56175;PMS5003;63065;51.082;17.016;2023-05-10T08:18:11;13;12;
56175;PMS5003;63065;51.082;17.016;2023-05-10T08:20:37;12;12;
56175;PMS5003;63065;51.082;17.016;2023-05-10T08:23:03;12;12;
56175;PMS5003;63065;51.082;17.016;2023-05-10T08:25:28;10;10;
56175;PMS5003;63065;51.082;17.016;2023-05-10T08:27:54;15;13;
56175;PMS5003;63065;51.082;17.016;2023-05-10T08:30:20;9;9;
56175;PMS5003;63065;51.082;17.016;2023-05-10T08:32:46;10;10;
56175;PMS5003;63065;51.082;17.016;2023-05-10T08:35:11;14;14;
56175;PMS5003;63065;51.082;17.016;2023-05-10T08:37:37;12;12;
56175;PMS5003;63065;51.082;17.016;2023-05-10T08:40:03;14;14;
56175;PMS5003;63065;51.082;17.016;2023-05-10T08:42:28;10;10;
56175;PMS5003;63065;51.082;17.016;2023-05-10T08:44:54;13;13;
56175;PMS5003;63065;51.082;17.016;2023-05-10T08:47:19;13;13;
56175;PMS5003;63065;51.082;17.016;2023-05-10T08:49:45;14;14;
56175;PMS5003;63065;51.082;17.016;2023-05-10T08:52:10;12;12;
56175;PMS5003;63065;51.082;17.016;2023-05-10T08:54:36;9;8;
56175;PMS5003;63065;51.082;17.016;2023-05-10T08:57:02;10;10;
56175;PMS5003;63065;51.082;17.016;2023-05-10T08:59:27;12;12;
56175;PMS5003;63065;51.082;17.016;2023-05-10T09:01:52;12;11;
56175;PMS5003;63065;51.082;17.016;2023-05-10T09:04:17;10;10;
56175;PMS5003;63065;51.082;17.016;2023-05-10T09:06:43;12;10;
56175;PMS5003;63065;51.082;17.016;2023-05-10T09:09:08;10;10;
56175;PMS5003;63065;51.082;17.016;2023-05-10T09:11:34;12;11;
56175;PMS5003;63065;51.082;17.016;2023-05-10T09:14:00;9;9;
56175;PMS5003;63065;51.082;17.016;2023-05-10T09:16:25;12;12;
56175;PMS5003;63065;51.082;17.016;2023-05-10T09:18:51;13;11;
56175;PMS5003;63065;51.082;17.016;2023-05-10T09:21:17;11;10;
56175;PMS5003;63065;51.082;17.016;2023-05-10T09:23:42;10;10;
56175;PMS5003;63065;51.082;17.016;2023-05-10T09:26:08;8;8;
56175;PMS5003;63065;51.082;17.016;2023-05-10T09:28:34;13;10;
56175;PMS5003;63065;51.082;17.016;2023-05-10T09:30:59;14;14;
56175;PMS5003;63065;51.082;17.016;2023-05-10T09:33:24;15;13;
56175;PMS5003;63065;51.082;17.016;2023-05-10T09:35:51;9;9;
56175;PMS5003;63065;51.082;17.016;2023-05-10T09:38:16;15;14;
56175;PMS5003;63065;51.082;17.016;2023-05-10T09:40:41;15;14;
56175;PMS5003;63065;51.082;17.016;2023-05-10T09:43:07;11;11;
56175;PMS5003;63065;51.082;17.016;2023-05-10T09:45:33;14;13;
56175;PMS5003;63065;51.082;17.016;2023-05-10T09:47:58;11;11;
56175;PMS5003;63065;51.082;17.016;2023-05-10T09:50:23;10;7;
56175;PMS5003;63065;51.082;17.016;2023-05-10T09:52:49;10;10;
56175;PMS5003;63065;51.082;17.016;2023-05-10T09:55:14;9;9;
56175;PMS5003;63065;51.082;17.016;2023-05-10T09:57:40;12;10;
56175;PMS5003;63065;51.082;17.016;2023-05-10T10:00:06;10;9;
56175;PMS5003;63065;51.082;17.016;2023-05-10T10:02:31;10;10;
56175;PMS5003;63065;51.082;17.016;2023-05-10T10:04:57;12;11;
56175;PMS5003;63065;51.082;17.016;2023-05-10T10:07:23;10;10;
56175;PMS5003;63065;51.082;17.016;2023-05-10T10:09:48;9;9;
56175;PMS5003;63065;51.082;17.016;2023-05-10T10:12:14;9;9;
56175;PMS5003;63065;51.082;17.016;2023-05-10T10:14:40;8;7;
56175;PMS5003;63065;51.082;17.016;2023-05-10T10:17:06;7;7;
56175;PMS5003;63065;51.082;17.016;2023-05-10T10:19:32;9;9;
56175;PMS5003;63065;51.082;17.016;2023-05-10T10:21:57;6;6;
56175;PMS5003;63065;51.082;17.016;2023-05-10T10:24:23;13;9;
56175;PMS5003;63065;51.082;17.016;2023-05-10T10:26:48;8;7;
56175;PMS5003;63065;51.082;17.016;2023-05-10T10:29:18;9;7;
56175;PMS5003;63065;51.082;17.016;2023-05-10T10:31:40;7;7;
56175;PMS5003;63065;51.082;17.016;2023-05-10T10:34:06;8;8;
56175;PMS5003;63065;51.082;17.016;2023-05-10T10:36:31;17;16;
56175;PMS5003;63065;51.082;17.016;2023-05-10T10:38:58;7;7;
56175;PMS5003;63065;51.082;17.016;2023-05-10T10:41:27;9;9;
56175;PMS5003;63065;51.082;17.016;2023-05-10T10:43:49;9;9;
56175;PMS5003;63065;51.082;17.016;2023-05-10T10:46:15;8;8;
56175;PMS5003;63065;51.082;17.016;2023-05-10T10:48:40;8;7;
56175;PMS5003;63065;51.082;17.016;2023-05-10T10:51:06;10;10;
56175;PMS5003;63065;51.082;17.016;2023-05-10T10:53:32;8;8;
56175;PMS5003;63065;51.082;17.016;2023-05-10T11:00:48;9;9;
56175;PMS5003;63065;51.082;17.016;2023-05-10T11:03:14;8;8;
56175;PMS5003;63065;51.082;17.016;2023-05-10T11:05:41;8;7;
56175;PMS5003;63065;51.082;17.016;2023-05-10T11:08:07;11;10;
56175;PMS5003;63065;51.082;17.016;2023-05-10T11:10:32;9;7;
56175;PMS5003;63065;51.082;17.016;2023-05-10T11:12:58;11;10;
56175;PMS5003;63065;51.082;17.016;2023-05-10T11:15:28;12;12;
56175;PMS5003;63065;51.082;17.016;2023-05-10T11:20:15;10;10;
56175;PMS5003;63065;51.082;17.016;2023-05-10T11:25:06;9;9;
56175;PMS5003;63065;51.082;17.016;2023-05-10T11:27:32;9;9;
56175;PMS5003;63065;51.082;17.016;2023-05-10T11:29:57;11;9;
56175;PMS5003;63065;51.082;17.016;2023-05-10T11:32:23;12;10;
56175;PMS5003;63065;51.082;17.016;2023-05-10T11:34:48;8;8;
56175;PMS5003;63065;51.082;17.016;2023-05-10T11:37:14;8;8;
56175;PMS5003;63065;51.082;17.016;2023-05-10T11:39:45;12;10;
56175;PMS5003;63065;51.082;17.016;2023-05-10T11:42:06;8;8;
56175;PMS5003;63065;51.082;17.016;2023-05-10T11:44:32;10;8;
56175;PMS5003;63065;51.082;17.016;2023-05-10T11:46:58;10;10;
56175;PMS5003;63065;51.082;17.016;2023-05-10T11:49:23;9;9;
56175;PMS5003;63065;51.082;17.016;2023-05-10T11:51:49;13;10;
56175;PMS5003;63065;51.082;17.016;2023-05-10T11:54:14;8;7;
56175;PMS5003;63065;51.082;17.016;2023-05-10T11:56:40;9;9;
56175;PMS5003;63065;51.082;17.016;2023-05-10T11:59:06;8;7;
56175;PMS5003;63065;51.082;17.016;2023-05-10T12:01:32;8;8;
56175;PMS5003;63065;51.082;17.016;2023-05-10T12:03:58;8;7;
56175;PMS5003;63065;51.082;17.016;2023-05-10T12:06:25;9;9;
56175;PMS5003;63065;51.082;17.016;2023-05-10T12:08:49;7;7;
56175;PMS5003;63065;51.082;17.016;2023-05-10T12:11:15;9;9;
56175;PMS5003;63065;51.082;17.016;2023-05-10T12:13:41;9;7;
56175;PMS5003;63065;51.082;17.016;2023-05-10T12:16:12;9;8;
56175;PMS5003;63065;51.082;17.016;2023-05-10T12:18:32;6;6;
56175;PMS5003;63065;51.082;17.016;2023-05-10T12:21:02;8;8;
56175;PMS5003;63065;51.082;17.016;2023-05-10T12:23:23;10;7;
56175;PMS5003;63065;51.082;17.016;2023-05-10T12:25:49;6;6;
56175;PMS5003;63065;51.082;17.016;2023-05-10T12:28:15;11;9;
56175;PMS5003;63065;51.082;17.016;2023-05-10T12:30:41;9;9;
56175;PMS5003;63065;51.082;17.016;2023-05-10T12:33:07;9;9;
56175;PMS5003;63065;51.082;17.016;2023-05-10T12:35:32;11;11;
56175;PMS5003;63065;51.082;17.016;2023-05-10T12:37:59;11;9;
56175;PMS5003;63065;51.082;17.016;2023-05-10T12:40:24;7;7;
56175;PMS5003;63065;51.082;17.016;2023-05-10T12:42:49;10;9;
56175;PMS5003;63065;51.082;17.016;2023-05-10T12:45:15;8;8;
56175;PMS5003;63065;51.082;17.016;2023-05-10T12:47:41;9;9;
56175;PMS5003;63065;51.082;17.016;2023-05-10T12:50:06;9;8;
56175;PMS5003;63065;51.082;17.016;2023-05-10T12:52:32;7;6;
56175;PMS5003;63065;51.082;17.016;2023-05-10T12:54:58;9;9;
56175;PMS5003;63065;51.082;17.016;2023-05-10T12:57:23;8;8;
56175;PMS5003;63065;51.082;17.016;2023-05-10T12:59:49;10;10;
56175;PMS5003;63065;51.082;17.016;2023-05-10T13:02:15;9;7;
56175;PMS5003;63065;51.082;17.016;2023-05-10T13:04:40;7;7;
56175;PMS5003;63065;51.082;17.016;2023-05-10T13:07:06;8;8;
56175;PMS5003;63065;51.082;17.016;2023-05-10T13:09:32;7;5;
56175;PMS5003;63065;51.082;17.016;2023-05-10T13:11:58;9;9;
56175;PMS5003;63065;51.082;17.016;2023-05-10T13:14:24;7;7;
56175;PMS5003;63065;51.082;17.016;2023-05-10T13:16:50;7;7;
56175;PMS5003;63065;51.082;17.016;2023-05-10T13:19:15;8;8;
56175;PMS5003;63065;51.082;17.016;2023-05-10T13:21:41;11;11;
56175;PMS5003;63065;51.082;17.016;2023-05-10T13:24:06;8;8;
56175;PMS5003;63065;51.082;17.016;2023-05-10T13:26:32;9;7;
56175;PMS5003;63065;51.082;17.016;2023-05-10T13:28:58;7;7;
56175;PMS5003;63065;51.082;17.016;2023-05-10T13:31:23;6;6;
56175;PMS5003;63065;51.082;17.016;2023-05-10T13:33:49;7;6;
56175;PMS5003;63065;51.082;17.016;2023-05-10T13:36:15;8;8;
56175;PMS5003;63065;51.082;17.016;2023-05-10T13:38:41;7;7;
56175;PMS5003;63065;51.082;17.016;2023-05-10T13:41:07;8;7;
56175;PMS5003;63065;51.082;17.016;2023-05-10T13:43:32;8;8;
56175;PMS5003;63065;51.082;17.016;2023-05-10T13:45:58;8;8;
56175;PMS5003;63065;51.082;17.016;2023-05-10T13:48:24;5;5;
56175;PMS5003;63065;51.082;17.016;2023-05-10T13:50:50;7;7;
56175;PMS5003;63065;51.082;17.016;2023-05-10T13:53:15;6;6;
56175;PMS5003;63065;51.082;17.016;2023-05-10T13:55:41;7;7;
56175;PMS5003;63065;51.082;17.016;2023-05-10T13:58:07;5;5;
56175;PMS5003;63065;51.082;17.016;2023-05-10T14:00:33;5;5;
56175;PMS5003;63065;51.082;17.016;2023-05-10T14:02:58;6;6;
56175;PMS5003;63065;51.082;17.016;2023-05-10T14:05:24;7;7;
56175;PMS5003;63065;51.082;17.016;2023-05-10T14:07:50;9;9;
56175;PMS5003;63065;51.082;17.016;2023-05-10T14:10:16;8;8;
56175;PMS5003;63065;51.082;17.016;2023-05-10T14:12:41;7;5;
56175;PMS5003;63065;51.082;17.016;2023-05-10T14:15:08;6;6;
56175;PMS5003;63065;51.082;17.016;2023-05-10T14:17:33;8;6;
56175;PMS5003;63065;51.082;17.016;2023-05-10T14:19:59;7;7;
56175;PMS5003;63065;51.082;17.016;2023-05-10T14:22:25;4;4;
56175;PMS5003;63065;51.082;17.016;2023-05-10T14:24:50;5;5;
56175;PMS5003;63065;51.082;17.016;2023-05-10T14:27:16;6;6;
56175;PMS5003;63065;51.082;17.016;2023-05-10T14:29:42;7;7;
56175;PMS5003;63065;51.082;17.016;2023-05-10T14:32:08;5;5;
56175;PMS5003;63065;51.082;17.016;2023-05-10T14:34:34;7;7;
56175;PMS5003;63065;51.082;17.016;2023-05-10T14:36:59;7;7;
56175;PMS5003;63065;51.082;17.016;2023-05-10T14:39:25;6;6;
56175;PMS5003;63065;51.082;17.016;2023-05-10T14:41:51;9;7;
56175;PMS5003;63065;51.082;17.016;2023-05-10T14:44:17;7;7;
56175;PMS5003;63065;51.082;17.016;2023-05-10T14:46:42;5;5;
56175;PMS5003;63065;51.082;17.016;2023-05-10T14:49:08;8;8;
56175;PMS5003;63065;51.082;17.016;2023-05-10T14:51:34;6;6;
56175;PMS5003;63065;51.082;17.016;2023-05-10T14:53:59;8;8;
56175;PMS5003;63065;51.082;17.016;2023-05-10T14:56:25;7;7;
56175;PMS5003;63065;51.082;17.016;2023-05-10T14:58:51;7;7;
56175;PMS5003;63065;51.082;17.016;2023-05-10T15:01:17;6;6;
56175;PMS5003;63065;51.082;17.016;2023-05-10T15:03:42;7;7;
56175;PMS5003;63065;51.082;17.016;2023-05-10T15:06:08;6;6;
56175;PMS5003;63065;51.082;17.016;2023-05-10T15:08:34;4;4;
56175;PMS5003;63065;51.082;17.016;2023-05-10T15:11:00;8;6;
56175;PMS5003;63065;51.082;17.016;2023-05-10T15:13:25;6;5;
56175;PMS5003;63065;51.082;17.016;2023-05-10T15:15:51;7;7;
56175;PMS5003;63065;51.082;17.016;2023-05-10T15:18:17;7;7;
56175;PMS5003;63065;51.082;17.016;2023-05-10T15:20:43;7;7;
56175;PMS5003;63065;51.082;17.016;2023-05-10T15:23:08;8;8;
56175;PMS5003;63065;51.082;17.016;2023-05-10T15:25:34;6;5;
56175;PMS5003;63065;51.082;17.016;2023-05-10T15:28:00;5;5;
56175;PMS5003;63065;51.082;17.016;2023-05-10T15:30:25;5;5;
56175;PMS5003;63065;51.082;17.016;2023-05-10T15:32:51;5;5;
56175;PMS5003;63065;51.082;17.016;2023-05-10T15:35:17;8;7;
56175;PMS5003;63065;51.082;17.016;2023-05-10T15:37:43;6;6;
56175;PMS5003;63065;51.082;17.016;2023-05-10T15:40:09;5;5;
56175;PMS5003;63065;51.082;17.016;2023-05-10T15:42:34;5;5;
56175;PMS5003;63065;51.082;17.016;2023-05-10T15:45:00;7;7;
56175;PMS5003;63065;51.082;17.016;2023-05-10T15:47:26;8;8;
56175;PMS5003;63065;51.082;17.016;2023-05-10T15:49:52;11;9;
56175;PMS5003;63065;51.082;17.016;2023-05-10T15:52:17;8;8;
56175;PMS5003;63065;51.082;17.016;2023-05-10T15:54:43;9;9;
56175;PMS5003;63065;51.082;17.016;2023-05-10T15:57:09;6;6;
56175;PMS5003;63065;51.082;17.016;2023-05-10T15:59:35;10;8;
56175;PMS5003;63065;51.082;17.016;2023-05-10T16:02:00;9;9;
56175;PMS5003;63065;51.082;17.016;2023-05-10T16:04:26;9;9;
56175;PMS5003;63065;51.082;17.016;2023-05-10T16:06:52;6;6;
56175;PMS5003;63065;51.082;17.016;2023-05-10T16:09:18;9;8;
56175;PMS5003;63065;51.082;17.016;2023-05-10T16:11:43;9;8;
56175;PMS5003;63065;51.082;17.016;2023-05-10T16:14:08;5;5;
56175;PMS5003;63065;51.082;17.016;2023-05-10T16:16:34;7;7;
56175;PMS5003;63065;51.082;17.016;2023-05-10T16:19:00;8;8;